Time;durP1;ratioP1;P1;durP2;ratioP2;P2;SDS_P1;SDS_P2;PMS_P1;PMS_P2;Temp;Humidity;BMP_temperature;BMP_pressure;BME280_temperature;BME280_humidity;BME280_pressure;Samples;Min_cycle;Max_cycle;Signal;HPM_P1;HPM_P2
2023/01/12 00:00:06;;;;;;;;;3.75;3.50;;;;;12.16;66.94;101351.00;2106895;27;46641;-61
2023/01/12 00:01:07;;;;;;;;;3.25;3.25;;;;;12.16;66.77;101336.81;2100976;27;46393;-63
2023/01/12 00:02:08;;;;;;;;;4.33;3.33;;;;;12.19;67.14;101340.28;2106652;27;46286;-60
2023/01/12 00:03:09;;;;;;;;;5.00;3.00;;;;;12.20;67.09;101335.88;2102279;28;46437;-59
2023/01/12 00:04:13;;;;;;;;;6.33;5.00;;;;;12.22;67.02;101334.94;2087108;28;46379;-57
2023/01/12 00:05:14;;;;;;;;;6.25;4.25;;;;;12.23;67.00;101341.13;2097499;27;46490;-59
2023/01/12 00:06:15;;;;;;;;;4.00;2.00;;;;;12.21;66.86;101329.66;2109132;27;46415;-59
2023/01/12 00:07:16;;;;;;;;;3.00;3.00;;;;;12.19;66.95;101334.97;2105390;27;46840;-59
2023/01/12 00:08:17;;;;;;;;;3.25;1.00;;;;;12.18;67.14;101337.66;2112709;27;46886;-60
2023/01/12 00:09:17;;;;;;;;;3.00;2.67;;;;;12.18;67.25;101340.31;2111006;27;46641;-60
2023/01/12 00:10:17;;;;;;;;;4.33;2.67;;;;;12.17;67.34;101328.81;2102835;27;46393;-60
2023/01/12 00:11:19;;;;;;;;;3.00;2.00;;;;;12.18;67.30;101345.66;2103256;28;46237;-58
2023/01/12 00:12:19;;;;;;;;;2.00;2.00;;;;;12.19;67.29;101344.75;2110540;27;46289;-61
2023/01/12 00:13:20;;;;;;;;;4.67;3.33;;;;;12.18;67.49;101333.22;2104482;27;46349;-60
2023/01/12 00:14:20;;;;;;;;;2.33;2.00;;;;;12.19;67.63;101339.41;2102231;28;46263;-60
2023/01/12 00:16:33;;;;;;;;;3.33;3.00;;;;;12.17;67.54;101331.47;2105194;27;46821;-59
2023/01/12 00:16:41;;;;;;;;;2.00;1.00;;;;;12.17;67.51;101326.16;2104865;27;46393;-59
2023/01/12 00:17:41;;;;;;;;;3.00;3.00;;;;;12.15;67.89;101297.81;2105584;27;46837;-60
2023/01/12 00:18:42;;;;;;;;;3.67;3.67;;;;;12.15;67.86;101306.69;2102114;27;46254;-59
2023/01/12 00:19:42;;;;;;;;;2.00;2.00;;;;;12.15;67.99;101308.47;2104678;28;46754;-59
2023/01/12 00:20:47;;;;;;;;;3.00;3.00;;;;;12.15;67.87;101301.34;2102836;27;46890;-59
2023/01/12 00:22:00;;;;;;;;;4.25;3.00;;;;;12.16;68.15;101307.56;2106870;27;46407;-59
2023/01/12 00:23:01;;;;;;;;;4.50;3.50;;;;;12.16;67.95;101300.44;2105468;27;46705;-58
2023/01/12 00:24:01;;;;;;;;;4.33;3.33;;;;;12.15;68.30;101298.69;2101533;27;46230;-60
2023/01/12 00:25:01;;;;;;;;;5.67;3.00;;;;;12.15;68.12;101298.69;2103775;27;46091;-61
2023/01/12 00:26:02;;;;;;;;;2.33;2.00;;;;;12.15;68.41;101292.50;2104957;28;45558;-57
2023/01/12 00:27:07;;;;;;;;;5.75;3.00;;;;;12.14;68.41;101296.94;2100521;27;46865;-60
2023/01/12 00:28:07;;;;;;;;;3.00;3.00;;;;;12.13;68.45;101300.50;2103400;27;46459;-60
2023/01/12 00:29:07;;;;;;;;;3.67;2.67;;;;;12.14;68.50;101301.38;2102554;28;46229;-59
2023/01/12 00:30:08;;;;;;;;;5.67;4.00;;;;;12.14;68.39;101296.94;2108626;27;45876;-59
2023/01/12 00:31:09;;;;;;;;;4.25;3.75;;;;;12.15;68.47;101296.03;2103090;27;46974;-59
2023/01/12 00:32:12;;;;;;;;;5.25;3.00;;;;;12.16;68.54;101307.56;2112535;27;46348;-60
2023/01/12 00:33:12;;;;;;;;;3.50;3.00;;;;;12.17;68.41;101301.31;2110189;27;45691;-59
2023/01/12 00:34:14;;;;;;;;;4.00;3.00;;;;;12.17;68.67;101298.66;2108903;27;46859;-58
2023/01/12 00:35:16;;;;;;;;;5.50;3.25;;;;;12.18;68.53;101295.09;2104924;28;46539;-60
2023/01/12 00:36:17;;;;;;;;;3.25;2.25;;;;;12.19;68.24;101291.53;2107576;27;46651;-60
2023/01/12 00:37:18;;;;;;;;;4.00;3.00;;;;;12.18;68.42;101289.78;2106824;27;46759;-60
2023/01/12 00:38:19;;;;;;;;;5.67;4.67;;;;;12.18;68.31;101279.13;2110210;27;46718;-60
2023/01/12 00:39:20;;;;;;;;;3.33;3.00;;;;;12.19;68.42;101294.19;2102910;27;46549;-60
2023/01/12 00:40:20;;;;;;;;;4.25;3.75;;;;;12.17;68.30;101282.69;2109399;27;46858;-61
2023/01/12 00:45:20;;;;;;;;;5.00;3.25;;;;;12.16;68.51;101286.28;2098904;28;46670;-60
2023/01/12 00:46:31;;;;;;;;;2.00;2.00;;;;;12.17;68.46;101288.91;2110956;27;46749;-60
2023/01/12 00:47:32;;;;;;;;;4.50;3.50;;;;;12.17;68.46;101285.34;2108799;27;46546;-60
2023/01/12 00:48:32;;;;;;;;;3.00;3.00;;;;;12.19;68.08;101291.53;2111542;27;46812;-58
2023/01/12 00:49:34;;;;;;;;;3.67;2.00;;;;;12.19;68.21;101288.84;2104355;27;46234;-60
2023/01/12 00:50:34;;;;;;;;;4.00;2.00;;;;;12.20;68.43;101287.97;2101158;27;46741;-60
2023/01/12 00:51:34;;;;;;;;;3.67;3.67;;;;;12.20;68.45;101272.91;2119850;27;46770;-59
2023/01/12 00:52:35;;;;;;;;;3.67;3.00;;;;;12.21;68.34;101279.09;2118098;27;46274;-60
2023/01/12 00:53:35;;;;;;;;;3.33;3.33;;;;;12.21;68.52;101271.13;2106314;27;46695;-59
2023/01/12 00:54:36;;;;;;;;;3.33;2.00;;;;;12.22;68.42;101264.88;2112713;27;46798;-60
2023/01/12 00:55:36;;;;;;;;;6.00;3.00;;;;;12.23;68.39;101259.53;2106184;27;46466;-60
2023/01/12 00:56:37;;;;;;;;;3.67;2.67;;;;;12.22;68.48;101236.47;2104849;28;45777;-61
2023/01/12 00:57:38;;;;;;;;;2.75;2.25;;;;;12.25;68.30;101238.19;2111222;27;46965;-59
2023/01/12 00:58:38;;;;;;;;;1.00;1.00;;;;;12.25;68.36;101235.53;2109573;27;46179;-60
2023/01/12 00:59:39;;;;;;;;;1.33;0.33;;;;;12.23;68.29;101230.25;2113102;27;46823;-60
2023/01/12 01:00:40;;;;;;;;;3.25;3.00;;;;;12.23;68.29;101226.72;2104920;27;46526;-60
2023/01/12 01:01:40;;;;;;;;;6.00;3.00;;;;;12.22;68.23;101224.97;2100733;28;46139;-59
2023/01/12 01:02:40;;;;;;;;;1.00;1.00;;;;;12.22;68.20;101240.94;2104753;27;44943;-61
2023/01/12 01:03:41;;;;;;;;;2.00;2.00;;;;;12.22;68.29;101219.66;2108443;27;46604;-58
2023/01/12 01:04:41;;;;;;;;;3.00;3.00;;;;;12.21;68.17;101217.91;2113778;27;45796;-60
2023/01/12 01:05:41;;;;;;;;;1.67;1.67;;;;;12.21;68.13;101212.56;2114006;27;46497;-59
2023/01/12 01:06:42;;;;;;;;;5.00;3.00;;;;;12.21;68.06;101215.22;2102890;28;45022;-58
2023/01/12 01:07:42;;;;;;;;;2.00;2.00;;;;;12.21;68.15;101220.56;2107355;28;45552;-59
2023/01/12 01:08:43;;;;;;;;;3.00;1.00;;;;;12.21;68.14;101225.88;2108209;27;46723;-60
2023/01/12 01:09:43;;;;;;;;;3.00;3.00;;;;;12.22;68.21;101232.94;2104270;28;46311;-59
2023/01/12 01:10:44;;;;;;;;;4.00;3.00;;;;;12.22;68.25;101236.47;2105357;28;46377;-59
2023/01/12 01:11:44;;;;;;;;;2.75;2.25;;;;;12.22;68.17;101238.28;2108586;27;45973;-59
2023/01/12 01:12:45;;;;;;;;;3.00;3.00;;;;;12.22;68.06;101238.28;2113185;27;46601;-58
2023/01/12 01:13:45;;;;;;;;;3.00;1.33;;;;;12.22;67.88;101239.16;2092346;28;46580;-59
2023/01/12 01:14:46;;;;;;;;;1.00;1.00;;;;;12.21;67.86;101233.84;2098247;28;46386;-59
2023/01/12 01:15:47;;;;;;;;;3.00;3.00;;;;;12.21;68.04;101237.41;2107368;27;46405;-59
2023/01/12 01:16:47;;;;;;;;;3.00;3.00;;;;;12.22;67.91;101244.47;2104440;27;46938;-59
2023/01/12 01:17:47;;;;;;;;;4.67;3.00;;;;;12.22;67.94;101243.59;2107678;27;46452;-59
2023/01/12 01:18:48;;;;;;;;;2.00;2.00;;;;;12.21;67.80;101250.69;2107691;27;46185;-61
2023/01/12 01:19:48;;;;;;;;;1.00;1.00;;;;;12.22;68.09;101235.59;2107672;27;47084;-59
2023/01/12 01:20:48;;;;;;;;;3.33;3.33;;;;;12.20;68.21;101234.78;2108413;27;46328;-60
2023/01/12 01:21:49;;;;;;;;;2.67;2.00;;;;;12.19;67.86;101244.50;2107793;28;46829;-60
2023/01/12 01:22:49;;;;;;;;;5.00;4.00;;;;;12.19;67.91;101246.28;2107654;27;46265;-61
2023/01/12 01:23:50;;;;;;;;;2.00;2.00;;;;;12.16;67.96;101236.59;2107415;27;46058;-58
2023/01/12 01:24:51;;;;;;;;;3.75;2.00;;;;;12.16;67.93;101241.91;2109447;27;47016;-59
2023/01/12 01:25:52;;;;;;;;;4.67;2.67;;;;;12.15;68.04;101241.94;2114217;27;46148;-59
2023/01/12 01:26:52;;;;;;;;;5.00;3.00;;;;;12.15;68.12;101229.50;2107644;27;46407;-59
2023/01/12 01:27:52;;;;;;;;;4.00;4.00;;;;;12.15;68.16;101237.50;2108786;27;46307;-58
2023/01/12 01:28:53;;;;;;;;;2.00;2.00;;;;;12.15;68.15;101237.50;2108730;27;46606;-59
2023/01/12 01:29:53;;;;;;;;;4.67;4.00;;;;;12.16;68.00;101228.59;2107510;27;46228;-59
2023/01/12 01:31:05;;;;;;;;;5.00;3.00;;;;;12.16;68.26;101233.06;2107282;27;46218;-60
2023/01/12 01:32:06;;;;;;;;;2.00;2.00;;;;;12.16;68.01;101227.72;2106802;28;45999;-59
2023/01/12 01:33:06;;;;;;;;;3.00;2.67;;;;;12.15;68.03;101225.97;2108616;27;46469;-59
2023/01/12 01:34:07;;;;;;;;;4.00;2.00;;;;;12.14;68.01;101227.75;2111564;27;46292;-60
2023/01/12 01:35:07;;;;;;;;;3.33;3.33;;;;;12.14;68.10;101233.09;2103872;27;46136;-60
2023/01/12 01:36:08;;;;;;;;;2.00;2.00;;;;;12.14;68.22;101235.75;2100850;27;47003;-59
2023/01/12 01:37:09;;;;;;;;;3.25;3.00;;;;;12.15;68.23;101233.97;2107477;28;46545;-59
2023/01/12 01:38:09;;;;;;;;;2.00;2.00;;;;;12.14;67.87;101226.88;2113001;27;46388;-59
2023/01/12 01:39:09;;;;;;;;;2.33;2.33;;;;;12.13;67.82;101241.97;2114007;27;46161;-60
2023/01/12 01:40:10;;;;;;;;;1.67;1.67;;;;;12.12;67.91;101237.56;2106706;28;46193;-59
2023/01/12 01:41:16;;;;;;;;;4.00;2.67;;;;;12.13;68.16;101241.09;2101762;28;46722;-60
2023/01/12 01:42:26;;;;;;;;;1.75;1.75;;;;;12.13;68.16;101234.00;2106723;27;46813;-59
2023/01/12 01:43:28;;;;;;;;;3.00;1.25;;;;;12.13;68.10;101243.75;2098006;28;46717;-60
2023/01/12 01:44:29;;;;;;;;;2.75;2.75;;;;;12.13;68.19;101239.31;2098408;28;46818;-60
2023/01/12 01:45:29;;;;;;;;;3.33;3.00;;;;;12.13;68.17;101236.66;2099782;27;46552;-58
2023/01/12 01:46:51;;;;;;;;;2.00;2.00;;;;;12.13;68.18;101230.47;2114640;27;46841;-58
2023/01/12 01:47:57;;;;;;;;;3.50;2.75;;;;;12.13;68.12;101241.09;2108330;27;46962;-59
2023/01/12 01:49:14;;;;;;;;;4.00;2.25;;;;;12.13;68.17;101239.31;2108149;27;47216;-60
2023/01/12 01:50:23;;;;;;;;;2.50;2.50;;;;;12.13;68.32;101228.69;2107302;28;46561;-59
2023/01/12 01:51:24;;;;;;;;;4.75;3.75;;;;;12.14;68.17;101232.22;2106622;27;45778;-60
2023/01/12 01:52:41;;;;;;;;;5.67;4.00;;;;;12.13;68.15;101218.03;2108932;27;46746;-60
2023/01/12 01:53:44;;;;;;;;;3.00;3.00;;;;;12.12;68.23;101213.63;2105298;27;46457;-59
2023/01/12 01:54:51;;;;;;;;;1.50;1.25;;;;;12.11;68.28;101216.31;2099424;28;46569;-58
2023/01/12 01:55:57;;;;;;;;;3.25;3.25;;;;;12.12;68.33;101202.09;2108422;27;46550;-60
2023/01/12 01:56:59;;;;;;;;;3.00;3.00;;;;;12.11;68.42;101214.53;2109148;27;46493;-61
2023/01/12 01:58:14;;;;;;;;;2.25;2.00;;;;;12.13;68.27;101210.06;2114010;27;46957;-60
2023/01/12 01:59:21;;;;;;;;;2.00;2.00;;;;;12.11;68.43;101214.53;2113995;27;46133;-59
2023/01/12 02:00:23;;;;;;;;;3.00;1.75;;;;;12.13;68.50;101211.84;2094315;28;46570;-59
2023/01/12 02:01:24;;;;;;;;;4.75;2.75;;;;;12.14;68.42;101213.59;2101512;28;46501;-59
2023/01/12 02:02:25;;;;;;;;;3.00;2.00;;;;;12.15;68.61;101215.34;2110098;27;46657;-60
2023/01/12 02:03:27;;;;;;;;;2.00;2.00;;;;;12.16;68.41;101214.44;2105892;27;46448;-60
2023/01/12 02:04:28;;;;;;;;;4.00;2.50;;;;;12.16;68.33;101225.94;2111904;27;46698;-60
2023/01/12 02:05:28;;;;;;;;;3.00;3.00;;;;;12.16;68.49;101233.94;2103429;28;46483;-60
2023/01/12 02:06:30;;;;;;;;;4.67;3.00;;;;;12.16;68.22;101236.59;2107310;28;46755;-59
2023/01/12 02:07:31;;;;;;;;;5.25;4.00;;;;;12.16;68.46;101233.94;2106401;28;47118;-60
2023/01/12 02:08:54;;;;;;;;;3.75;2.00;;;;;12.16;68.45;101228.59;2104514;28;46142;-60
2023/01/12 02:09:55;;;;;;;;;5.25;3.50;;;;;12.15;68.36;101226.84;2096705;28;46527;-59
2023/01/12 02:10:57;;;;;;;;;3.33;3.33;;;;;12.16;68.38;101222.41;2097608;28;45917;-60
2023/01/12 02:16:19;;;;;;;;;2.75;2.75;;;;;12.15;68.61;101213.56;2097911;28;45609;-60
2023/01/12 02:17:42;;;;;;;;;1.25;1.25;;;;;12.15;68.68;101223.31;2113364;27;46149;-60
2023/01/12 02:19:04;;;;;;;;;3.50;1.75;;;;;12.15;68.55;101220.66;2110806;27;46210;-60
2023/01/12 02:20:24;;;;;;;;;4.00;2.25;;;;;12.14;68.63;101218.91;2101781;28;46841;-58
2023/01/12 02:21:50;;;;;;;;;3.00;2.00;;;;;12.14;69.03;101222.44;2106878;27;46689;-61
2023/01/12 02:23:21;;;;;;;;;2.50;2.50;;;;;12.15;68.69;101208.22;2102823;27;46599;-59
2023/01/12 02:24:55;;;;;;;;;3.00;1.00;;;;;12.15;68.53;101213.56;2101856;28;46419;-61
2023/01/12 02:26:11;;;;;;;;;2.75;2.00;;;;;12.15;68.61;101208.22;2105563;28;46187;-60
2023/01/12 02:27:17;;;;;;;;;3.75;3.00;;;;;12.16;68.67;101209.09;2098773;28;46554;-57
2023/01/12 02:28:53;;;;;;;;;2.00;1.25;;;;;12.15;68.60;101202.91;2110201;27;46926;-59
2023/01/12 02:30:02;;;;;;;;;3.25;2.75;;;;;12.15;68.78;101200.25;2074804;28;47049;-59
2023/01/12 02:31:36;;;;;;;;;3.25;2.50;;;;;12.15;68.53;101205.56;2070510;28;46962;-59
2023/01/12 02:33:03;;;;;;;;;6.00;2.00;;;;;12.14;68.63;101202.94;2069219;28;46510;-57
2023/01/12 02:34:25;;;;;;;;;2.00;2.00;;;;;12.15;68.52;101196.72;2054954;28;47065;-60
2023/01/12 02:35:36;;;;;;;;;4.50;3.25;;;;;12.14;68.73;101186.97;2055517;28;46552;-60
2023/01/12 02:36:55;;;;;;;;;3.00;3.00;;;;;12.15;68.78;101213.56;2053783;28;46391;-60
2023/01/12 02:38:17;;;;;;;;;3.00;1.00;;;;;12.14;68.61;101189.66;2055256;28;47232;-59
2023/01/12 02:39:26;;;;;;;;;3.00;2.00;;;;;12.14;68.80;101192.31;2054576;28;46419;-59
2023/01/12 02:40:42;;;;;;;;;1.50;1.25;;;;;12.14;68.88;101189.66;2055347;28;46325;-60
2023/01/12 02:43:21;;;;;;;;;2.75;1.25;;;;;12.15;68.73;101186.06;2047214;28;47060;-60
2023/01/12 02:45:00;;;;;;;;;1.75;1.75;;;;;12.14;68.76;101161.25;2055183;28;46411;-59
2023/01/12 02:46:26;;;;;;;;;2.50;1.00;;;;;12.15;68.77;101165.66;2027393;29;46813;-59
2023/01/12 02:47:39;;;;;;;;;1.00;0.00;;;;;12.15;68.93;101167.44;2027126;29;46780;-60
2023/01/12 02:48:54;;;;;;;;;3.25;2.25;;;;;12.15;68.65;101170.97;2021122;29;46276;-60
2023/01/12 02:49:59;;;;;;;;;2.00;2.00;;;;;12.15;68.87;101164.78;2021223;29;46610;-59
2023/01/12 02:51:27;;;;;;;;;3.75;1.75;;;;;12.17;68.84;101165.63;2021946;29;46582;-60
2023/01/12 02:52:32;;;;;;;;;1.50;1.50;;;;;12.18;68.84;101156.72;2023877;29;47380;-60
2023/01/12 02:53:45;;;;;;;;;4.50;3.50;;;;;12.18;68.70;101170.91;2015775;29;48542;-59
2023/01/12 02:54:48;;;;;;;;;1.00;1.00;;;;;12.19;68.88;101164.69;2004693;29;47605;-58
2023/01/12 02:55:49;;;;;;;;;3.00;3.00;;;;;12.18;68.72;101162.94;2015657;29;47357;-60
2023/01/12 02:56:54;;;;;;;;;2.00;1.25;;;;;12.21;68.64;101164.69;2018951;29;46657;-59
2023/01/12 02:57:55;;;;;;;;;1.00;1.00;;;;;12.22;68.63;101163.75;2020694;29;46181;-56
2023/01/12 02:59:02;;;;;;;;;2.50;2.00;;;;;12.23;68.58;101168.19;2020738;29;46677;-60
2023/01/12 03:00:05;;;;;;;;;5.75;2.25;;;;;12.23;68.65;101162.84;2018910;29;46547;-60
2023/01/12 03:01:08;;;;;;;;;2.00;2.00;;;;;12.23;68.70;101165.50;2022192;29;46598;-59
2023/01/12 03:02:14;;;;;;;;;3.50;2.25;;;;;12.23;68.49;101147.75;2020753;29;46900;-61
2023/01/12 03:03:16;;;;;;;;;2.00;2.00;;;;;12.23;68.43;101155.75;2015562;29;46725;-58
2023/01/12 03:04:19;;;;;;;;;2.25;1.50;;;;;12.25;68.62;101159.25;2016595;29;46686;-57
2023/01/12 03:05:19;;;;;;;;;1.75;1.25;;;;;12.24;68.39;101148.63;2026512;29;46478;-60
2023/01/12 03:06:19;;;;;;;;;1.00;1.00;;;;;12.24;68.49;101151.28;2023120;29;46567;-59
2023/01/12 03:07:26;;;;;;;;;1.67;1.67;;;;;12.25;68.54;101147.72;2042005;28;46592;-59
2023/01/12 03:08:29;;;;;;;;;2.25;2.25;;;;;12.24;68.58;101143.31;2034934;28;46414;-59
2023/01/12 03:09:38;;;;;;;;;2.25;2.25;;;;;12.24;68.54;101143.31;2039011;28;46443;-60
2023/01/12 03:11:05;;;;;;;;;3.00;2.00;;;;;12.25;68.36;101142.41;2046745;28;46344;-58
2023/01/12 03:12:11;;;;;;;;;3.50;2.00;;;;;12.24;68.32;101138.88;2067615;28;46244;-59
2023/01/12 03:13:15;;;;;;;;;1.25;1.25;;;;;12.24;68.35;101133.53;2061180;28;46895;-59
2023/01/12 03:14:16;;;;;;;;;1.75;1.75;;;;;12.25;68.50;101131.75;2060049;28;46714;-59
2023/01/12 03:15:18;;;;;;;;;5.50;3.75;;;;;12.24;68.54;101127.34;2063015;28;46348;-59
2023/01/12 03:16:25;;;;;;;;;2.75;2.75;;;;;12.23;68.29;101123.81;2063227;28;46764;-60
2023/01/12 03:17:37;;;;;;;;;2.00;2.00;;;;;12.25;68.42;101126.44;2063192;28;47024;-59
2023/01/12 03:19:13;;;;;;;;;3.00;1.25;;;;;12.27;68.40;101129.94;2063022;28;46447;-59
2023/01/12 03:20:22;;;;;;;;;5.75;1.50;;;;;12.26;68.42;101129.06;2062475;28;46841;-59
2023/01/12 03:21:33;;;;;;;;;2.00;1.00;;;;;12.27;68.43;101124.63;2058412;28;46729;-60
2023/01/12 03:22:36;;;;;;;;;3.00;1.50;;;;;12.27;68.31;101122.81;2068067;28;46554;-59
2023/01/12 03:23:46;;;;;;;;;4.00;2.75;;;;;12.27;68.46;101120.16;2079751;27;46452;-59
2023/01/12 03:24:53;;;;;;;;;2.50;2.50;;;;;12.27;68.45;101124.63;2108674;27;45704;-59
2023/01/12 03:25:58;;;;;;;;;3.25;2.00;;;;;12.28;68.50;101140.53;2108907;27;46508;-59
2023/01/12 03:27:08;;;;;;;;;1.75;1.25;;;;;12.28;68.45;101124.56;2099982;27;46956;-59
2023/01/12 03:28:12;;;;;;;;;4.25;2.50;;;;;12.29;68.53;101125.44;2106686;27;46844;-59
2023/01/12 03:29:21;;;;;;;;;1.75;1.75;;;;;12.29;68.52;101128.97;2110116;27;46636;-57
2023/01/12 03:30:36;;;;;;;;;2.50;2.50;;;;;12.29;68.62;101128.13;2108718;27;46101;-60
2023/01/12 03:31:37;;;;;;;;;3.50;2.50;;;;;12.27;68.73;101113.97;2105189;27;46590;-58
2023/01/12 03:35:23;;;;;;;;;2.25;0.50;;;;;12.28;68.73;101113.94;2102264;27;46983;-60
2023/01/12 03:36:37;;;;;;;;;1.00;1.00;;;;;12.27;68.92;101101.53;2105913;27;46584;-59
2023/01/12 03:37:50;;;;;;;;;8.25;4.00;;;;;12.27;68.79;101109.53;2103161;28;46504;-61
2023/01/12 03:39:15;;;;;;;;;2.00;1.50;;;;;12.26;68.81;101113.09;2096104;28;46048;-57
2023/01/12 03:40:22;;;;;;;;;2.25;2.25;;;;;12.27;68.91;101098.88;2099570;28;46373;-59
2023/01/12 03:41:53;;;;;;;;;3.75;3.00;;;;;12.27;68.91;101098.00;2104147;28;45769;-58
2023/01/12 03:43:14;;;;;;;;;0.25;0.25;;;;;12.27;68.97;101111.31;2096974;28;47102;-59
2023/01/12 03:44:20;;;;;;;;;1.75;1.75;;;;;12.27;68.99;101103.31;2086531;28;48154;-59
2023/01/12 03:45:36;;;;;;;;;2.75;1.00;;;;;12.28;68.98;101099.75;2079683;28;46634;-60
2023/01/12 03:46:44;;;;;;;;;1.00;1.00;;;;;12.29;69.11;101091.72;2090250;28;46684;-57
2023/01/12 03:47:51;;;;;;;;;2.75;2.25;;;;;12.28;69.06;101094.44;2097520;28;46677;-60
2023/01/12 03:49:00;;;;;;;;;2.25;2.00;;;;;12.29;69.38;101096.19;2093170;28;46202;-59
2023/01/12 03:50:08;;;;;;;;;1.75;1.00;;;;;12.30;69.03;101104.13;2097220;28;46931;-59
2023/01/12 03:51:22;;;;;;;;;2.50;1.00;;;;;12.30;69.19;101101.47;2104848;28;46545;-59
2023/01/12 03:52:24;;;;;;;;;1.75;1.75;;;;;12.31;69.11;101097.88;2104224;28;46512;-58
2023/01/12 03:53:25;;;;;;;;;0.75;0.25;;;;;12.32;68.95;101090.78;2101677;28;47045;-59
2023/01/12 03:54:27;;;;;;;;;4.00;2.00;;;;;12.32;69.19;101097.00;2096959;28;46658;-59
2023/01/12 03:55:31;;;;;;;;;4.00;3.00;;;;;12.32;69.27;101097.00;2097034;28;46471;-60
2023/01/12 03:56:35;;;;;;;;;3.75;3.50;;;;;12.33;69.21;101085.44;2099158;28;46883;-60
2023/01/12 03:57:37;;;;;;;;;2.50;2.00;;;;;12.33;69.36;101088.09;2105423;28;46474;-58
2023/01/12 03:58:37;;;;;;;;;2.50;2.00;;;;;12.35;69.14;101085.41;2105133;28;46315;-60
2023/01/12 03:59:39;;;;;;;;;2.00;2.00;;;;;12.35;69.23;101080.09;2104396;28;46181;-59
2023/01/12 04:00:40;;;;;;;;;1.25;0.50;;;;;12.36;69.31;101081.84;2105264;28;46736;-60
2023/01/12 04:01:42;;;;;;;;;1.00;1.00;;;;;12.37;69.36;101088.91;2103686;28;46992;-60
2023/01/12 04:02:43;;;;;;;;;2.25;1.75;;;;;12.37;69.47;101091.56;2095554;28;46498;-60
2023/01/12 04:03:43;;;;;;;;;1.25;1.25;;;;;12.37;69.44;101087.13;2087839;28;46319;-58
2023/01/12 04:04:43;;;;;;;;;2.00;1.67;;;;;12.37;69.51;101089.78;2091356;28;46521;-58
2023/01/12 04:05:44;;;;;;;;;2.67;1.67;;;;;12.38;69.36;101080.00;2105052;28;46306;-60
2023/01/12 04:06:44;;;;;;;;;3.00;3.00;;;;;12.38;69.43;101083.53;2105546;28;45576;-57
2023/01/12 04:07:45;;;;;;;;;4.00;1.00;;;;;12.37;69.47;101071.16;2104148;28;46721;-59
2023/01/12 04:08:45;;;;;;;;;2.67;1.33;;;;;12.36;69.53;101069.41;2095982;28;46486;-59
2023/01/12 04:09:45;;;;;;;;;0.33;0.33;;;;;12.38;69.61;101061.38;2101896;28;46551;-58
2023/01/12 04:10:46;;;;;;;;;3.00;2.00;;;;;12.37;69.46;101072.94;2105361;28;46234;-59
2023/01/12 04:13:05;;;;;;;;;2.25;2.00;;;;;12.36;69.68;101061.41;2100676;28;46810;-58
2023/01/12 04:14:05;;;;;;;;;2.00;2.00;;;;;12.36;69.66;101071.19;2095838;28;45847;-60
2023/01/12 04:15:06;;;;;;;;;1.00;1.00;;;;;12.36;69.71;101055.22;2093011;28;46626;-59
2023/01/12 04:16:06;;;;;;;;;1.33;1.33;;;;;12.36;69.68;101063.19;2095466;28;46170;-60
2023/01/12 04:17:09;;;;;;;;;2.00;1.00;;;;;12.36;69.42;101055.22;2095395;28;46327;-59
2023/01/12 04:18:11;;;;;;;;;3.00;1.75;;;;;12.36;69.42;101044.56;2099087;27;46428;-61
2023/01/12 04:19:11;;;;;;;;;3.25;3.25;;;;;12.36;69.47;101045.44;2105186;27;46310;-60
2023/01/12 04:20:12;;;;;;;;;3.00;2.00;;;;;12.37;69.67;101046.31;2104918;27;46037;-60
2023/01/12 04:22:43;;;;;;;;;5.25;2.00;;;;;12.37;69.42;101048.97;2104696;28;46460;-57
2023/01/12 04:23:43;;;;;;;;;1.25;1.25;;;;;12.36;69.61;101044.56;2096919;28;46433;-58
2023/01/12 04:24:44;;;;;;;;;4.33;2.00;;;;;12.35;69.58;101048.16;2096016;28;47058;-59
2023/01/12 04:25:44;;;;;;;;;3.00;1.00;;;;;12.37;69.64;101048.97;2105157;28;46493;-60
2023/01/12 04:26:45;;;;;;;;;1.67;1.00;;;;;12.34;69.70;101046.41;2104496;27;46529;-60
2023/01/12 04:27:52;;;;;;;;;1.75;1.75;;;;;12.32;69.79;101041.13;2104978;27;45749;-60
2023/01/12 04:28:52;;;;;;;;;7.75;3.75;;;;;12.33;69.70;101042.88;2111425;27;46126;-60
2023/01/12 04:29:53;;;;;;;;;2.00;2.00;;;;;12.33;69.64;101040.19;2109002;27;46423;-60
2023/01/12 04:30:53;;;;;;;;;0.25;0.25;;;;;12.34;69.62;101046.41;2098850;27;46699;-58
2023/01/12 04:31:54;;;;;;;;;1.00;1.00;;;;;12.34;69.72;101041.94;2105138;27;46683;-59
2023/01/12 04:32:55;;;;;;;;;3.33;1.00;;;;;12.33;69.75;101029.56;2104885;27;46611;-59
2023/01/12 04:33:56;;;;;;;;;2.25;2.25;;;;;12.36;69.63;101031.25;2104851;28;46718;-60
2023/01/12 04:34:56;;;;;;;;;1.67;1.67;;;;;12.36;69.43;101025.94;2103273;28;45585;-59
2023/01/12 04:35:56;;;;;;;;;4.00;3.00;;;;;12.35;69.61;101018.88;2101590;28;46817;-59
2023/01/12 04:36:59;;;;;;;;;3.33;2.67;;;;;12.36;69.51;101029.47;2105257;28;45537;-59
2023/01/12 04:38:07;;;;;;;;;3.00;1.25;;;;;12.38;69.57;101021.44;2104906;27;46357;-60
2023/01/12 04:39:07;;;;;;;;;4.00;2.25;;;;;12.38;69.48;101011.69;2104084;27;46441;-60
2023/01/12 04:40:10;;;;;;;;;2.00;2.00;;;;;12.39;69.33;101012.56;2113441;27;46164;-59
2023/01/12 04:41:10;;;;;;;;;1.75;1.75;;;;;12.40;69.37;101029.41;2107351;27;46894;-61
2023/01/12 04:42:59;;;;;;;;;2.00;2.00;;;;;12.40;69.24;101019.63;2104301;27;46554;-61
2023/01/12 04:43:31;;;;;;;;;1.50;1.50;;;;;12.39;69.18;101031.19;2095523;28;46702;-58
2023/01/12 04:44:33;;;;;;;;;2.00;2.00;;;;;12.39;69.20;101047.16;2088325;28;46510;-60
2023/01/12 04:45:40;;;;;;;;;1.25;1.25;;;;;12.38;69.32;101026.78;2087156;28;46387;-60
2023/01/12 04:46:40;;;;;;;;;2.00;2.00;;;;;12.38;69.18;101034.75;2078960;28;46480;-59
2023/01/12 04:47:40;;;;;;;;;2.00;2.00;;;;;12.37;69.20;101041.88;2076918;28;46797;-60
2023/01/12 04:48:43;;;;;;;;;2.33;2.00;;;;;12.37;69.26;101048.97;2078702;28;46866;-60
2023/01/12 04:49:43;;;;;;;;;2.00;2.00;;;;;12.39;69.27;101049.81;2087364;28;46847;-60
2023/01/12 04:50:43;;;;;;;;;2.67;1.00;;;;;12.39;69.22;101060.47;2090990;28;46298;-59
2023/01/12 04:51:44;;;;;;;;;2.33;2.00;;;;;12.39;69.02;101065.78;2095407;28;46416;-60
2023/01/12 04:52:45;;;;;;;;;4.50;2.75;;;;;12.38;69.11;101056.06;2089682;28;46793;-62
2023/01/12 04:53:47;;;;;;;;;3.00;3.00;;;;;12.36;69.06;101037.47;2085127;28;46864;-60
2023/01/12 04:54:47;;;;;;;;;1.50;1.50;;;;;12.36;69.46;101040.13;2087513;28;46757;-59
2023/01/12 04:55:48;;;;;;;;;5.33;3.00;;;;;12.35;69.11;101038.38;2089941;28;46520;-60
2023/01/12 04:56:48;;;;;;;;;3.25;2.75;;;;;12.37;69.14;101035.69;2089572;28;46887;-60
2023/01/12 04:57:49;;;;;;;;;5.00;3.00;;;;;12.37;69.38;101039.22;2081639;28;46532;-60
2023/01/12 04:58:54;;;;;;;;;3.00;1.00;;;;;12.38;69.19;101048.06;2083077;28;46167;-59
2023/01/12 04:59:54;;;;;;;;;2.50;2.50;;;;;12.39;69.21;101039.16;2086422;28;46800;-60
2023/01/12 05:00:55;;;;;;;;;5.00;2.00;;;;;12.40;69.29;101048.03;2087110;28;46091;-60
2023/01/12 05:01:55;;;;;;;;;1.00;1.00;;;;;12.41;69.25;101042.66;2086448;28;46502;-60
2023/01/12 05:02:58;;;;;;;;;5.00;3.33;;;;;12.41;69.18;101033.81;2086971;28;45871;-60
2023/01/12 05:04:01;;;;;;;;;2.75;2.75;;;;;12.41;68.98;101042.66;2087420;28;46516;-61
2023/01/12 05:05:04;;;;;;;;;1.50;1.50;;;;;12.41;69.26;101036.47;2086643;28;46220;-60
2023/01/12 05:06:04;;;;;;;;;4.25;3.00;;;;;12.40;69.09;101030.28;2087189;28;46681;-57
2023/01/12 05:07:05;;;;;;;;;1.67;1.67;;;;;12.39;69.13;101031.19;2088881;28;46320;-57
2023/01/12 05:10:49;;;;;;;;;3.00;2.00;;;;;12.37;69.23;101020.56;2087501;28;46552;-61
2023/01/12 05:11:49;;;;;;;;;1.00;1.00;;;;;12.38;69.22;101018.78;2089290;28;46905;-59
2023/01/12 05:12:50;;;;;;;;;6.00;4.00;;;;;12.39;69.43;101023.19;2095571;28;46814;-59
2023/01/12 05:13:50;;;;;;;;;2.00;1.67;;;;;12.40;69.24;101005.44;2091122;28;46437;-61
2023/01/12 05:14:51;;;;;;;;;2.33;1.00;;;;;12.41;69.25;101016.03;2093356;28;46549;-60
2023/01/12 05:15:51;;;;;;;;;1.00;1.00;;;;;12.43;69.30;101018.66;2095259;28;46413;-60
2023/01/12 05:16:52;;;;;;;;;3.00;1.67;;;;;12.44;69.31;101015.97;2090900;28;46626;-59
2023/01/12 05:17:53;;;;;;;;;1.00;1.00;;;;;12.45;69.35;101011.50;2103412;27;46596;-59
2023/01/12 05:18:53;;;;;;;;;6.50;2.00;;;;;12.46;69.03;101018.63;2097634;28;46488;-60